createdAt,value
2022-09-26T00:01:38.163Z,10.67
2022-09-26T00:04:20.128Z,10.67
2022-09-26T00:06:52.636Z,10.62
2022-09-26T00:09:33.021Z,10.58
2022-09-26T00:12:10.664Z,10.57
2022-09-26T00:14:41.320Z,10.56
2022-09-26T00:17:08.776Z,10.52
2022-09-26T00:19:36.280Z,10.49
2022-09-26T00:22:03.590Z,10.43
2022-09-26T00:24:30.796Z,10.37
2022-09-26T00:26:57.920Z,10.24
2022-09-26T00:29:25.194Z,10.31
2022-09-26T00:31:52.436Z,10.26
2022-09-26T00:34:20.465Z,10.24
2022-09-26T00:36:47.603Z,10.21
2022-09-26T00:39:17.076Z,10.21
2022-09-26T00:41:44.992Z,10.19
2022-09-26T00:44:48.829Z,10.19
2022-09-26T00:48:02.275Z,10.17
2022-09-26T00:50:35.342Z,10.22
2022-09-26T00:53:33.254Z,10.18
2022-09-26T00:56:09.282Z,10.13
2022-09-26T00:58:44.962Z,10.14
2022-09-26T01:01:14.198Z,10.11
2022-09-26T01:03:44.957Z,10.10
2022-09-26T01:06:12.824Z,10.05
2022-09-26T01:08:49.941Z,10.03
2022-09-26T01:11:17.556Z,10.04
2022-09-26T01:13:45.593Z,10.06
2022-09-26T01:16:13.107Z,10.00
2022-09-26T01:18:40.957Z,10.02
2022-09-26T01:21:36.553Z,9.98
2022-09-26T01:24:27.556Z,9.97
2022-09-26T01:27:14.655Z,9.98
2022-09-26T01:30:02.927Z,9.95
2022-09-26T01:32:58.072Z,9.92
2022-09-26T01:35:36.921Z,9.94
2022-09-26T01:38:32.916Z,9.93
2022-09-26T01:41:26.018Z,9.93
2022-09-26T01:44:29.825Z,9.91
2022-09-26T01:47:38.539Z,9.85
2022-09-26T01:50:32.650Z,9.80
2022-09-26T01:53:15.913Z,9.81
2022-09-26T01:55:52.808Z,9.82
2022-09-26T01:58:37.471Z,9.83
2022-09-26T02:01:11.667Z,9.79
2022-09-26T02:03:49.293Z,9.84
2022-09-26T02:06:35.089Z,9.84
2022-09-26T02:09:17.115Z,9.85
2022-09-26T02:11:49.954Z,9.85
2022-09-26T02:14:31.986Z,9.86
2022-09-26T02:17:18.890Z,9.87
2022-09-26T02:20:05.894Z,9.84
2022-09-26T02:22:35.098Z,9.81
2022-09-26T02:25:04.418Z,9.82
2022-09-26T02:27:32.140Z,9.82
2022-09-26T02:29:59.902Z,9.82
2022-09-26T02:32:33.124Z,9.86
2022-09-26T02:35:02.289Z,9.85
2022-09-26T02:37:29.390Z,9.86
2022-09-26T02:39:57.121Z,9.88
2022-09-26T02:43:11.523Z,9.86
2022-09-26T02:46:01.561Z,9.84
2022-09-26T02:49:00.633Z,9.84
2022-09-26T02:52:07.060Z,9.80
2022-09-26T02:54:59.055Z,9.74
2022-09-26T02:57:48.971Z,9.69
2022-09-26T03:00:25.633Z,9.68
2022-09-26T03:03:30.501Z,9.67
2022-09-26T03:06:02.447Z,9.66
2022-09-26T03:08:42.715Z,9.66
2022-09-26T03:11:16.198Z,9.68
2022-09-26T03:13:45.791Z,9.66
2022-09-26T03:16:14.928Z,9.68
2022-09-26T03:18:54.189Z,9.66
2022-09-26T03:21:22.307Z,9.70
2022-09-26T03:23:51.024Z,9.70
2022-09-26T03:26:22.631Z,9.71
2022-09-26T03:28:50.058Z,9.69
2022-09-26T03:31:17.889Z,9.67
2022-09-26T03:33:45.216Z,9.66
2022-09-26T03:36:12.363Z,9.64
2022-09-26T03:38:39.601Z,9.61
2022-09-26T03:41:07.127Z,9.63
2022-09-26T03:43:34.236Z,9.65
2022-09-26T03:46:07.345Z,9.61
2022-09-26T03:48:34.896Z,9.62
2022-09-26T03:51:08.675Z,9.61
2022-09-26T03:53:39.912Z,9.60
2022-09-26T03:56:10.936Z,9.56
2022-09-26T03:58:39.032Z,9.51
2022-09-26T04:01:13.621Z,9.50
2022-09-26T04:03:49.311Z,9.49
2022-09-26T04:06:19.585Z,9.46
2022-09-26T04:08:50.726Z,9.46
2022-09-26T04:11:23.711Z,9.41
2022-09-26T04:13:53.758Z,9.38
2022-09-26T04:16:23.316Z,9.33
2022-09-26T04:18:55.081Z,9.30
2022-09-26T04:21:22.316Z,9.26
2022-09-26T04:23:49.499Z,9.24
2022-09-26T04:26:23.422Z,9.22
2022-09-26T04:28:54.143Z,9.18
2022-09-26T04:31:22.359Z,9.18
2022-09-26T04:33:50.612Z,9.15
2022-09-26T04:36:18.849Z,9.12
2022-09-26T04:38:46.021Z,9.09
2022-09-26T04:41:20.160Z,9.06
2022-09-26T04:43:48.626Z,9.06
2022-09-26T04:46:22.236Z,9.08
2022-09-26T04:48:53.270Z,9.05
2022-09-26T04:51:23.373Z,9.02
2022-09-26T04:53:51.836Z,9.01
2022-09-26T04:56:22.006Z,9.03
2022-09-26T04:58:50.099Z,9.04
2022-09-26T05:01:20.591Z,9.02
2022-09-26T05:03:48.615Z,9.06
2022-09-26T05:06:17.677Z,9.05
2022-09-26T05:08:45.678Z,9.05
2022-09-26T05:11:15.073Z,9.02
2022-09-26T05:13:43.180Z,9.02
2022-09-26T05:16:12.754Z,9.02
2022-09-26T05:18:40.346Z,9.02
2022-09-26T05:21:08.405Z,8.99
2022-09-26T05:23:40.827Z,8.98
2022-09-26T05:26:17.062Z,9.00
2022-09-26T05:28:44.230Z,9.01
2022-09-26T05:31:13.416Z,9.02
2022-09-26T05:33:41.081Z,9.01
2022-09-26T05:36:08.713Z,9.02
2022-09-26T05:38:36.227Z,9.06
2022-09-26T05:41:03.490Z,9.05
2022-09-26T05:43:32.967Z,9.08
2022-09-26T05:46:07.558Z,9.10
2022-09-26T05:48:37.785Z,9.13
2022-09-26T05:51:11.888Z,9.17
2022-09-26T05:53:46.849Z,9.19
2022-09-26T05:56:18.840Z,9.20
2022-09-26T05:58:46.662Z,9.22
2022-09-26T06:01:18.788Z,9.25
2022-09-26T06:03:47.585Z,9.26
2022-09-26T06:06:20.015Z,9.26
2022-09-26T06:08:48.802Z,9.32
2022-09-26T06:11:19.636Z,9.34
2022-09-26T06:13:47.059Z,9.36
2022-09-26T06:16:18.170Z,9.39
2022-09-26T06:18:47.198Z,9.39
2022-09-26T06:21:17.723Z,9.41
2022-09-26T06:23:45.220Z,9.41
2022-09-26T06:26:21.168Z,9.44
2022-09-26T06:28:48.850Z,9.48
2022-09-26T06:31:18.955Z,9.53
2022-09-26T06:33:51.150Z,9.57
2022-09-26T06:36:18.315Z,9.61
2022-09-26T06:38:45.623Z,9.62
2022-09-26T06:41:12.921Z,9.64
2022-09-26T06:43:40.124Z,9.70
2022-09-26T06:46:07.777Z,9.73
2022-09-26T06:48:35.359Z,9.71
2022-09-26T06:51:02.659Z,9.73
2022-09-26T06:53:30.111Z,9.79
2022-09-26T06:55:59.396Z,9.80
2022-09-26T06:58:27.018Z,9.84
2022-09-26T07:00:54.389Z,9.88
2022-09-26T07:03:21.582Z,9.93
2022-09-26T07:05:48.920Z,9.97
2022-09-26T07:08:16.131Z,9.99
2022-09-26T07:10:43.248Z,10.04
2022-09-26T07:13:10.779Z,10.07
2022-09-26T07:15:37.985Z,10.14
2022-09-26T07:18:07.053Z,10.16
2022-09-26T07:20:39.173Z,10.18
2022-09-26T07:23:09.946Z,10.23
2022-09-26T07:25:37.972Z,10.26
2022-09-26T07:28:08.987Z,10.33
2022-09-26T07:30:36.577Z,10.36
2022-09-26T07:33:05.567Z,10.38
2022-09-26T07:35:36.663Z,10.41
2022-09-26T07:38:04.432Z,10.45
2022-09-26T07:40:32.514Z,10.50
2022-09-26T07:43:19.122Z,10.55
2022-09-26T07:45:47.419Z,10.65
2022-09-26T07:48:14.646Z,10.73
2022-09-26T07:50:41.913Z,10.83
2022-09-26T07:53:09.022Z,10.91
2022-09-26T07:55:36.151Z,10.95
2022-09-26T07:58:03.285Z,11.02
2022-09-26T08:00:30.380Z,11.01
2022-09-26T08:03:01.663Z,11.07
2022-09-26T08:05:29.142Z,11.13
2022-09-26T08:07:56.290Z,11.17
2022-09-26T08:10:23.597Z,11.21
2022-09-26T08:12:50.828Z,11.25
2022-09-26T08:15:18.166Z,11.29
2022-09-26T08:17:45.369Z,11.32
2022-09-26T08:20:12.628Z,11.38
2022-09-26T08:22:39.795Z,11.40
2022-09-26T08:25:08.183Z,11.43
2022-09-26T08:27:35.634Z,11.46
2022-09-26T08:30:03.918Z,11.50
2022-09-26T08:32:31.198Z,11.58
2022-09-26T08:34:58.428Z,11.60
2022-09-26T08:37:29.446Z,11.60
2022-09-26T08:39:56.677Z,11.61
2022-09-26T08:43:14.835Z,11.66
2022-09-26T08:46:16.128Z,11.67
2022-09-26T08:49:11.879Z,11.72
2022-09-26T08:51:45.841Z,11.74
2022-09-26T08:54:20.331Z,11.78
2022-09-26T08:56:54.339Z,11.78
2022-09-26T08:59:47.333Z,11.82
2022-09-26T09:03:00.257Z,11.89
2022-09-26T09:05:31.598Z,11.94
2022-09-26T09:08:03.205Z,12.01
2022-09-26T09:10:47.547Z,12.07
2022-09-26T09:13:46.634Z,12.06
2022-09-26T09:16:45.973Z,12.10
2022-09-26T09:19:44.487Z,12.15
2022-09-26T09:22:42.790Z,12.14
2022-09-26T09:25:30.674Z,12.14
2022-09-26T09:28:14.539Z,12.21
2022-09-26T09:31:15.464Z,12.28
2022-09-26T09:34:03.117Z,12.33
2022-09-26T09:36:44.254Z,12.40
2022-09-26T09:39:31.424Z,12.49
2022-09-26T09:42:40.943Z,12.63
2022-09-26T09:45:40.354Z,12.73
2022-09-26T09:48:12.926Z,12.77
2022-09-26T09:51:08.619Z,12.77
2022-09-26T09:54:25.540Z,12.82
2022-09-26T09:57:21.413Z,12.87
2022-09-26T10:00:09.486Z,12.96
2022-09-26T10:03:00.133Z,13.01
2022-09-26T10:05:44.693Z,13.07
2022-09-26T10:08:29.336Z,13.07
2022-09-26T10:11:18.914Z,13.15
2022-09-26T10:13:49.815Z,13.16
2022-09-26T10:16:17.402Z,13.13
2022-09-26T10:19:09.199Z,13.12
2022-09-26T10:21:48.233Z,13.18
2022-09-26T10:24:37.957Z,13.24
2022-09-26T10:27:23.707Z,13.30
2022-09-26T10:30:28.559Z,13.33
2022-09-26T10:33:00.293Z,13.34
2022-09-26T10:35:43.572Z,13.31
2022-09-26T10:38:22.540Z,13.31
2022-09-26T10:41:02.457Z,13.33
2022-09-26T10:43:36.120Z,13.33
2022-09-26T10:46:15.296Z,13.32
2022-09-26T10:48:59.407Z,13.29
2022-09-26T10:51:39.175Z,13.28
2022-09-26T10:54:23.068Z,13.25
2022-09-26T10:56:55.042Z,13.24
2022-09-26T10:59:29.629Z,13.20
2022-09-26T11:01:58.368Z,13.20
2022-09-26T11:04:28.825Z,13.08
2022-09-26T11:06:56.162Z,13.03
2022-09-26T11:09:23.572Z,13.05
2022-09-26T11:11:51.681Z,13.00
2022-09-26T11:14:28.601Z,12.93
2022-09-26T11:16:56.599Z,12.95
2022-09-26T11:19:55.190Z,12.85
2022-09-26T11:22:37.719Z,12.87
2022-09-26T11:25:14.292Z,12.90
2022-09-26T11:27:58.573Z,13.01
2022-09-26T11:30:30.138Z,13.01
2022-09-26T11:33:00.311Z,12.90
2022-09-26T11:35:33.071Z,13.00
2022-09-26T11:38:25.037Z,12.95
2022-09-26T11:41:35.092Z,12.96
2022-09-26T11:44:39.935Z,12.97
2022-09-26T11:47:52.046Z,13.33
2022-09-26T11:50:43.001Z,14.49
2022-09-26T11:53:44.937Z,15.11
2022-09-26T11:56:30.932Z,15.26
2022-09-26T11:59:32.973Z,15.22
2022-09-26T12:02:34.163Z,14.89
2022-09-26T12:05:34.663Z,14.77
2022-09-26T12:08:19.748Z,14.79
2022-09-26T12:11:07.047Z,14.72
2022-09-26T12:14:17.411Z,14.59
2022-09-26T12:16:51.609Z,14.46
2022-09-26T12:20:06.036Z,14.34
2022-09-26T12:22:45.166Z,14.24
2022-09-26T12:25:38.774Z,14.15
2022-09-26T12:28:22.903Z,14.06
2022-09-26T12:31:18.830Z,13.94
2022-09-26T12:34:02.347Z,13.88
2022-09-26T12:36:32.468Z,13.82
2022-09-26T12:39:05.351Z,13.77
2022-09-26T12:42:01.392Z,13.69
2022-09-26T12:45:14.038Z,13.64
2022-09-26T12:48:27.134Z,13.57
2022-09-26T12:51:35.659Z,13.50
2022-09-26T12:54:30.011Z,13.49
2022-09-26T12:57:31.290Z,13.51
2022-09-26T13:00:21.194Z,13.58
2022-09-26T13:03:25.225Z,13.60
2022-09-26T13:06:34.179Z,13.68
2022-09-26T13:09:45.592Z,13.83
2022-09-26T13:12:38.662Z,14.02
2022-09-26T13:15:40.201Z,14.05
2022-09-26T13:18:26.404Z,14.11
2022-09-26T13:21:05.972Z,14.31
2022-09-26T13:23:49.168Z,14.60
2022-09-26T13:26:55.968Z,15.02
2022-09-26T13:29:37.641Z,15.45
2022-09-26T13:32:28.813Z,15.91
2022-09-26T13:35:28.108Z,16.33
2022-09-26T13:38:16.977Z,16.43
2022-09-26T13:40:49.980Z,16.58
2022-09-26T13:43:56.025Z,16.88
2022-09-26T13:47:08.149Z,17.25
2022-09-26T13:50:11.431Z,17.61
2022-09-26T13:52:59.735Z,17.81
2022-09-26T13:55:27.003Z,17.85
2022-09-26T13:57:57.216Z,17.87
2022-09-26T14:00:40.398Z,17.78
2022-09-26T14:03:07.635Z,17.60
2022-09-26T14:05:44.224Z,17.28
2022-09-26T14:08:26.803Z,16.92
2022-09-26T14:11:20.156Z,16.51
2022-09-26T14:14:08.892Z,16.38
2022-09-26T14:16:37.425Z,16.37
2022-09-26T14:19:29.071Z,16.26
2022-09-26T14:22:04.134Z,16.14
2022-09-26T14:24:39.403Z,16.00
2022-09-26T14:27:12.549Z,15.81
2022-09-26T14:29:39.567Z,15.66
2022-09-26T14:32:09.661Z,15.55
2022-09-26T14:34:53.335Z,15.40
2022-09-26T14:37:40.308Z,15.31
2022-09-26T14:40:10.410Z,15.40
2022-09-26T14:42:43.995Z,15.42
2022-09-26T14:45:17.539Z,15.36
2022-09-26T14:48:23.514Z,15.51
2022-09-26T14:50:56.371Z,15.60
2022-09-26T14:53:48.053Z,15.55
2022-09-26T14:56:27.499Z,15.46
2022-09-26T14:59:29.774Z,15.33
2022-09-26T15:02:25.360Z,15.20
2022-09-26T15:05:23.883Z,15.04
2022-09-26T15:07:54.386Z,14.89
2022-09-26T15:10:48.834Z,14.79
2022-09-26T15:13:37.473Z,14.68
2022-09-26T15:16:19.440Z,14.57
2022-09-26T15:19:07.419Z,14.53
2022-09-26T15:22:12.738Z,14.41
2022-09-26T15:24:41.137Z,14.32
2022-09-26T15:27:29.555Z,14.25
2022-09-26T15:30:27.595Z,14.18
2022-09-26T15:33:00.778Z,14.09
2022-09-26T15:35:29.554Z,13.99
2022-09-26T15:38:03.044Z,13.90
2022-09-26T15:40:33.324Z,13.85
2022-09-26T15:43:09.919Z,13.77
2022-09-26T15:45:48.450Z,13.71
2022-09-26T15:48:26.888Z,13.62
2022-09-26T15:51:12.382Z,13.56
2022-09-26T15:54:01.467Z,13.45
2022-09-26T15:56:44.739Z,13.33
2022-09-26T15:59:40.712Z,13.35
2022-09-26T16:02:31.602Z,13.29
2022-09-26T16:05:01.236Z,13.21
2022-09-26T16:07:32.432Z,13.20
2022-09-26T16:10:01.991Z,13.20
2022-09-26T16:12:31.244Z,13.15
2022-09-26T16:15:20.154Z,13.12
2022-09-26T16:17:55.313Z,13.12
2022-09-26T16:20:33.864Z,13.10
2022-09-26T16:23:05.654Z,13.11
2022-09-26T16:25:53.556Z,13.06
2022-09-26T16:28:44.815Z,12.97
2022-09-26T16:31:45.807Z,13.00
2022-09-26T16:34:25.602Z,12.91
2022-09-26T16:36:56.639Z,12.86
2022-09-26T16:39:27.541Z,12.80
2022-09-26T16:42:03.694Z,12.74
2022-09-26T16:44:42.749Z,12.65
2022-09-26T16:47:42.132Z,12.58
2022-09-26T16:50:29.444Z,12.49
2022-09-26T16:52:57.899Z,12.40
2022-09-26T16:55:27.435Z,12.34
2022-09-26T16:58:01.665Z,12.24
2022-09-26T17:00:35.408Z,12.16
2022-09-26T17:03:16.413Z,12.11
2022-09-26T17:05:44.800Z,12.04
2022-09-26T17:08:14.321Z,11.99
2022-09-26T17:10:43.702Z,11.91
2022-09-26T17:13:27.839Z,11.88
2022-09-26T17:16:02.474Z,11.84
2022-09-26T17:18:30.941Z,11.78
2022-09-26T17:20:58.799Z,11.75
2022-09-26T17:23:39.943Z,11.70
2022-09-26T17:26:18.030Z,11.61
2022-09-26T17:28:49.375Z,11.55
2022-09-26T17:31:18.431Z,11.51
2022-09-26T17:33:52.551Z,11.47
2022-09-26T17:36:27.482Z,11.43
2022-09-26T17:38:57.119Z,11.41
2022-09-26T17:41:25.665Z,11.37
2022-09-26T17:43:54.523Z,11.34
2022-09-26T17:46:23.731Z,11.28
2022-09-26T17:48:53.233Z,11.25
2022-09-26T17:51:22.743Z,11.20
2022-09-26T17:53:51.860Z,11.19
2022-09-26T17:56:23.372Z,11.17
2022-09-26T17:58:51.879Z,11.13
2022-09-26T18:01:32.695Z,11.09
2022-09-26T18:04:07.778Z,11.07
2022-09-26T18:06:37.574Z,11.07
2022-09-26T18:09:06.213Z,11.05
2022-09-26T18:11:37.133Z,11.01
2022-09-26T18:14:07.284Z,11.02
2022-09-26T18:16:36.978Z,11.01
2022-09-26T18:19:07.723Z,10.99
2022-09-26T18:21:36.971Z,10.95
2022-09-26T18:24:07.088Z,10.92
2022-09-26T18:26:47.167Z,10.88
2022-09-26T18:29:31.168Z,10.85
2022-09-26T18:31:59.930Z,10.83
2022-09-26T18:34:27.357Z,10.75
2022-09-26T18:36:55.871Z,10.79
2022-09-26T18:39:28.795Z,10.77
2022-09-26T18:42:08.625Z,10.71
2022-09-26T18:44:37.135Z,10.68
2022-09-26T18:47:14.220Z,10.66
2022-09-26T18:49:47.269Z,10.65
2022-09-26T18:52:20.036Z,10.61
2022-09-26T18:54:51.127Z,10.60
2022-09-26T18:57:21.454Z,10.59
2022-09-26T18:59:52.598Z,10.59
2022-09-26T19:02:29.687Z,10.55
2022-09-26T19:05:00.280Z,10.54
2022-09-26T19:07:30.109Z,10.50
2022-09-26T19:09:57.926Z,10.48
2022-09-26T19:12:26.810Z,10.48
2022-09-26T19:14:54.696Z,10.49
2022-09-26T19:17:22.630Z,10.46
2022-09-26T19:19:51.061Z,10.44
2022-09-26T19:22:19.020Z,10.41
2022-09-26T19:24:55.272Z,10.39
2022-09-26T19:27:29.313Z,10.40
2022-09-26T19:30:01.878Z,10.34
2022-09-26T19:32:53.757Z,10.36
2022-09-26T19:35:32.017Z,10.36
2022-09-26T19:38:03.196Z,10.35
2022-09-26T19:40:31.206Z,10.32
2022-09-26T19:43:02.098Z,10.32
2022-09-26T19:45:32.236Z,10.32
2022-09-26T19:48:03.041Z,10.31
2022-09-26T19:50:35.406Z,10.33
2022-09-26T19:53:09.727Z,10.32
2022-09-26T19:55:37.889Z,10.36
2022-09-26T19:58:28.484Z,10.34
2022-09-26T20:01:02.236Z,10.34
2022-09-26T20:03:39.700Z,10.31
2022-09-26T20:06:19.799Z,10.29
2022-09-26T20:09:01.490Z,10.27
2022-09-26T20:11:32.307Z,10.31
2022-09-26T20:13:59.977Z,10.34
2022-09-26T20:16:29.148Z,10.35
2022-09-26T20:18:59.672Z,10.35
2022-09-26T20:21:30.015Z,10.36
2022-09-26T20:24:01.918Z,10.35
2022-09-26T20:26:35.533Z,10.36
2022-09-26T20:29:03.316Z,10.35
2022-09-26T20:31:30.477Z,10.32
2022-09-26T20:33:58.193Z,10.37
2022-09-26T20:36:33.124Z,10.38
2022-09-26T20:39:13.783Z,10.31
2022-09-26T20:41:43.213Z,10.31
2022-09-26T20:44:32.779Z,10.33
2022-09-26T20:47:04.482Z,10.32
2022-09-26T20:49:48.109Z,10.31
2022-09-26T20:52:24.473Z,10.31
2022-09-26T20:54:59.020Z,10.35
2022-09-26T20:57:27.898Z,10.32
2022-09-26T20:59:56.735Z,10.32
2022-09-26T21:02:30.990Z,10.37
2022-09-26T21:04:59.614Z,10.33
2022-09-26T21:07:28.883Z,10.31
2022-09-26T21:09:57.989Z,10.35
2022-09-26T21:12:26.874Z,10.34
2022-09-26T21:14:54.980Z,10.33
2022-09-26T21:17:28.326Z,10.35
2022-09-26T21:19:56.403Z,10.36
2022-09-26T21:22:27.053Z,10.37
2022-09-26T21:24:56.317Z,10.37
2022-09-26T21:27:24.553Z,10.38
2022-09-26T21:29:52.901Z,10.38
2022-09-26T21:32:23.029Z,10.39
2022-09-26T21:35:05.953Z,10.40
2022-09-26T21:37:35.229Z,10.40
2022-09-26T21:40:03.127Z,10.40
2022-09-26T21:42:30.340Z,10.40
2022-09-26T21:45:07.141Z,10.41
2022-09-26T21:47:34.923Z,10.40
2022-09-26T21:50:04.889Z,10.43
2022-09-26T21:52:44.982Z,10.43
2022-09-26T21:55:32.807Z,10.41
2022-09-26T21:58:09.444Z,10.43
2022-09-26T22:00:37.355Z,10.44
2022-09-26T22:03:05.066Z,10.43
2022-09-26T22:05:33.167Z,10.45
2022-09-26T22:08:01.396Z,10.44
2022-09-26T22:10:29.444Z,10.43
2022-09-26T22:12:58.718Z,10.38
2022-09-26T22:15:26.505Z,10.40
2022-09-26T22:17:54.351Z,10.42
2022-09-26T22:20:22.658Z,10.42
2022-09-26T22:22:50.737Z,10.42
2022-09-26T22:25:18.134Z,10.45
2022-09-26T22:27:45.379Z,10.47
2022-09-26T22:30:13.609Z,10.43
2022-09-26T22:32:40.817Z,10.41
2022-09-26T22:35:08.184Z,10.41
2022-09-26T22:37:35.432Z,10.39
2022-09-26T22:40:03.627Z,10.39
2022-09-26T22:42:30.778Z,10.40
2022-09-26T22:44:57.951Z,10.42
2022-09-26T22:47:25.398Z,10.41
2022-09-26T22:49:52.588Z,10.40
2022-09-26T22:52:19.747Z,10.42
2022-09-26T22:54:46.983Z,10.43
2022-09-26T22:57:14.189Z,10.41
2022-09-26T22:59:41.379Z,10.39
2022-09-26T23:02:08.528Z,10.41
2022-09-26T23:04:35.678Z,10.44
2022-09-26T23:07:02.868Z,10.43
2022-09-26T23:09:30.172Z,10.43
2022-09-26T23:11:57.300Z,10.40
2022-09-26T23:14:24.456Z,10.43
2022-09-26T23:16:51.702Z,10.39
2022-09-26T23:19:18.855Z,10.46
2022-09-26T23:21:45.971Z,10.46
2022-09-26T23:24:13.179Z,10.45
2022-09-26T23:26:40.432Z,10.43
2022-09-26T23:29:08.607Z,10.44
2022-09-26T23:31:35.874Z,10.41
2022-09-26T23:34:03.421Z,10.43
2022-09-26T23:36:30.646Z,10.45
2022-09-26T23:38:58.143Z,10.43
2022-09-26T23:41:26.035Z,10.44
2022-09-26T23:43:53.323Z,10.41
2022-09-26T23:46:20.713Z,10.38
2022-09-26T23:48:47.906Z,10.42
2022-09-26T23:51:15.057Z,10.46
2022-09-26T23:53:42.205Z,10.46
2022-09-26T23:56:13.289Z,10.43
2022-09-26T23:58:41.190Z,10.45
